createdAt,value
2019-03-27T00:00:16.265Z,36.20
2019-03-27T00:02:44.612Z,36.20
2019-03-27T00:05:13.069Z,36.40
2019-03-27T00:07:41.607Z,36.50
2019-03-27T00:10:10.085Z,36.70
2019-03-27T00:12:38.595Z,36.70
2019-03-27T00:15:13.150Z,36.80
2019-03-27T00:17:40.491Z,37.50
2019-03-27T00:20:09.393Z,37.10
2019-03-27T00:22:37.840Z,37.10
2019-03-27T00:25:09.380Z,36.90
2019-03-27T00:27:37.813Z,36.90
2019-03-27T00:30:09.561Z,36.90
2019-03-27T00:32:37.931Z,36.90
2019-03-27T00:35:06.994Z,37.00
2019-03-27T00:37:35.507Z,37.00
2019-03-27T00:40:05.191Z,37.10
2019-03-27T00:42:33.664Z,37.30
2019-03-27T00:45:02.161Z,37.30
2019-03-27T00:47:30.622Z,37.20
2019-03-27T00:49:59.115Z,37.40
2019-03-27T00:52:27.695Z,37.50
2019-03-27T00:54:56.128Z,37.60
2019-03-27T00:57:24.597Z,37.70
2019-03-27T00:59:53.074Z,37.70
2019-03-27T01:02:21.531Z,37.70
2019-03-27T01:04:49.921Z,37.80
2019-03-27T01:07:18.436Z,37.90
2019-03-27T01:09:46.890Z,38.00
2019-03-27T01:12:15.313Z,37.90
2019-03-27T01:14:43.779Z,38.00
2019-03-27T01:17:13.315Z,38.10
2019-03-27T01:19:41.767Z,38.20
2019-03-27T01:22:10.217Z,38.20
2019-03-27T01:24:38.753Z,38.20
2019-03-27T01:27:07.286Z,38.10
2019-03-27T01:29:35.714Z,38.10
2019-03-27T01:32:04.293Z,38.20
2019-03-27T01:34:32.730Z,38.40
2019-03-27T01:37:01.321Z,39.10
2019-03-27T01:39:29.749Z,38.60
2019-03-27T01:41:58.144Z,38.60
2019-03-27T01:44:26.597Z,38.60
2019-03-27T01:46:55.137Z,38.60
2019-03-27T01:49:23.548Z,39.00
2019-03-27T01:51:51.953Z,38.70
2019-03-27T01:54:20.345Z,38.70
2019-03-27T01:56:48.805Z,38.80
2019-03-27T01:59:17.234Z,38.80
2019-03-27T02:01:45.650Z,39.00
2019-03-27T02:04:14.089Z,39.10
2019-03-27T02:06:42.452Z,39.10
2019-03-27T02:09:10.843Z,39.10
2019-03-27T02:11:39.318Z,39.20
2019-03-27T02:14:07.833Z,39.20
2019-03-27T02:16:36.330Z,39.20
2019-03-27T02:19:04.728Z,39.30
2019-03-27T02:21:33.203Z,39.40
2019-03-27T02:24:01.624Z,39.40
2019-03-27T02:26:30.019Z,39.60
2019-03-27T02:28:58.514Z,39.50
2019-03-27T02:31:27.049Z,39.50
2019-03-27T02:33:55.485Z,39.50
2019-03-27T02:36:23.885Z,39.40
2019-03-27T02:38:52.305Z,39.40
2019-03-27T02:41:20.719Z,39.40
2019-03-27T02:43:49.258Z,39.50
2019-03-27T02:46:24.416Z,39.60
2019-03-27T02:48:47.768Z,39.80
2019-03-27T02:51:17.370Z,39.90
2019-03-27T02:53:45.850Z,40.10
2019-03-27T02:56:14.216Z,40.20
2019-03-27T02:58:42.695Z,40.20
2019-03-27T03:01:11.675Z,40.30
2019-03-27T03:03:40.100Z,40.30
2019-03-27T03:06:08.473Z,40.50
2019-03-27T03:08:37.071Z,40.50
2019-03-27T03:11:05.539Z,40.70
2019-03-27T03:13:33.958Z,40.90
2019-03-27T03:16:02.504Z,41.00
2019-03-27T03:18:30.962Z,41.20
2019-03-27T03:20:59.426Z,41.30
2019-03-27T03:23:28.940Z,41.40
2019-03-27T03:25:57.366Z,41.50
2019-03-27T03:28:25.910Z,41.50
2019-03-27T03:30:54.498Z,41.60
2019-03-27T03:33:22.982Z,41.70
2019-03-27T03:35:51.378Z,41.80
2019-03-27T03:38:19.754Z,41.80
2019-03-27T03:40:48.216Z,41.70
2019-03-27T03:43:16.659Z,41.80
2019-03-27T03:45:45.176Z,41.80
2019-03-27T03:48:13.638Z,41.90
2019-03-27T03:50:43.051Z,42.00
2019-03-27T03:53:12.758Z,42.00
2019-03-27T03:55:41.228Z,42.00
2019-03-27T03:58:10.408Z,42.10
2019-03-27T04:00:39.202Z,42.20
2019-03-27T04:03:07.574Z,42.30
2019-03-27T04:05:35.947Z,42.30
2019-03-27T04:08:04.723Z,42.40
2019-03-27T04:10:33.067Z,42.40
2019-03-27T04:13:01.465Z,42.50
2019-03-27T04:15:29.936Z,42.70
2019-03-27T04:17:58.434Z,42.80
2019-03-27T04:20:26.802Z,42.90
2019-03-27T04:22:55.238Z,43.10
2019-03-27T04:25:23.803Z,43.40
2019-03-27T04:27:52.261Z,43.40
2019-03-27T04:30:20.794Z,43.50
2019-03-27T04:32:50.363Z,43.50
2019-03-27T04:35:18.759Z,43.60
2019-03-27T04:37:47.138Z,43.60
2019-03-27T04:40:15.664Z,43.70
2019-03-27T04:42:44.146Z,43.60
2019-03-27T04:45:12.671Z,43.60
2019-03-27T04:47:41.079Z,43.50
2019-03-27T04:50:09.516Z,43.40
2019-03-27T04:52:37.924Z,43.10
2019-03-27T04:55:06.823Z,42.70
2019-03-27T04:57:35.335Z,42.60
2019-03-27T05:00:06.260Z,42.60
2019-03-27T05:02:34.648Z,42.60
2019-03-27T05:05:04.237Z,42.70
2019-03-27T05:07:32.734Z,42.90
2019-03-27T05:10:01.134Z,43.10
2019-03-27T05:12:29.576Z,43.30
2019-03-27T05:14:57.940Z,43.30
2019-03-27T05:17:26.358Z,43.50
2019-03-27T05:19:54.713Z,43.70
2019-03-27T05:22:23.101Z,43.80
2019-03-27T05:24:51.638Z,43.80
2019-03-27T05:27:20.046Z,43.80
2019-03-27T05:29:48.458Z,44.00
2019-03-27T05:32:16.932Z,44.40
2019-03-27T05:34:45.377Z,44.30
2019-03-27T05:37:13.797Z,44.20
2019-03-27T05:39:42.193Z,43.90
2019-03-27T05:42:10.509Z,43.80
2019-03-27T05:44:39.037Z,43.20
2019-03-27T05:47:07.492Z,43.70
2019-03-27T05:49:35.904Z,43.60
2019-03-27T05:52:04.318Z,43.70
2019-03-27T05:54:32.707Z,43.80
2019-03-27T05:57:01.200Z,43.90
2019-03-27T05:59:29.572Z,43.90
2019-03-27T06:01:58.062Z,43.80
2019-03-27T06:04:26.582Z,43.80
2019-03-27T06:06:55.048Z,43.70
2019-03-27T06:09:23.477Z,43.80
2019-03-27T06:11:51.921Z,43.80
2019-03-27T06:14:20.336Z,44.00
2019-03-27T06:16:48.729Z,44.10
2019-03-27T06:19:17.172Z,44.10
2019-03-27T06:21:45.550Z,44.10
2019-03-27T06:24:13.977Z,44.10
2019-03-27T06:26:42.494Z,44.00
2019-03-27T06:29:30.364Z,44.10
2019-03-27T06:31:58.737Z,44.00
2019-03-27T06:34:27.140Z,44.70
2019-03-27T06:36:55.622Z,45.00
2019-03-27T06:39:24.013Z,44.40
2019-03-27T06:41:52.513Z,44.70
2019-03-27T06:44:20.895Z,44.80
2019-03-27T06:46:49.348Z,45.00
2019-03-27T06:49:17.819Z,45.20
2019-03-27T06:51:46.232Z,45.70
2019-03-27T06:54:14.631Z,46.00
2019-03-27T06:56:42.976Z,45.80
2019-03-27T06:59:11.339Z,45.50
2019-03-27T07:01:39.863Z,45.30
2019-03-27T07:04:10.907Z,45.10
2019-03-27T07:06:38.432Z,45.20
2019-03-27T07:09:08.712Z,45.10
2019-03-27T07:11:37.175Z,44.90
2019-03-27T07:14:05.609Z,44.60
2019-03-27T07:16:34.105Z,44.30
2019-03-27T07:19:02.610Z,44.10
2019-03-27T07:21:31.001Z,43.80
2019-03-27T07:23:59.523Z,43.70
2019-03-27T07:26:27.914Z,43.50
2019-03-27T07:28:56.355Z,43.40
2019-03-27T07:31:24.900Z,43.50
2019-03-27T07:34:12.701Z,43.50
2019-03-27T07:36:41.247Z,43.50
2019-03-27T07:39:11.341Z,43.60
2019-03-27T07:41:39.787Z,43.80
2019-03-27T07:44:08.251Z,43.80
2019-03-27T07:46:36.723Z,43.70
2019-03-27T07:49:05.116Z,43.60
2019-03-27T07:51:33.582Z,43.80
2019-03-27T07:54:02.117Z,43.90
2019-03-27T07:56:30.504Z,44.00
2019-03-27T07:58:59.891Z,44.10
2019-03-27T08:01:28.554Z,44.10
2019-03-27T08:03:56.959Z,43.80
2019-03-27T08:06:25.422Z,43.80
2019-03-27T08:08:53.936Z,43.40
2019-03-27T08:11:22.494Z,43.20
2019-03-27T08:13:50.873Z,43.00
2019-03-27T08:16:19.350Z,42.90
2019-03-27T08:18:47.871Z,42.90
2019-03-27T08:21:16.221Z,42.50
2019-03-27T08:23:44.697Z,42.80
2019-03-27T08:26:13.365Z,42.70
2019-03-27T08:28:41.789Z,42.70
2019-03-27T08:31:10.154Z,42.80
2019-03-27T08:33:38.602Z,42.90
2019-03-27T08:36:07.034Z,43.00
2019-03-27T08:38:35.405Z,43.00
2019-03-27T08:41:03.923Z,43.00
2019-03-27T08:43:32.407Z,43.10
2019-03-27T08:46:00.918Z,43.10
2019-03-27T08:48:29.380Z,43.10
2019-03-27T08:50:58.975Z,43.20
2019-03-27T08:53:27.426Z,43.10
2019-03-27T08:55:55.859Z,43.10
2019-03-27T08:58:43.849Z,43.20
2019-03-27T09:01:12.199Z,43.00
2019-03-27T09:03:40.518Z,43.10
2019-03-27T09:06:10.074Z,42.80
2019-03-27T09:08:38.570Z,42.60
2019-03-27T09:11:07.049Z,42.60
2019-03-27T09:13:35.509Z,42.30
2019-03-27T09:16:03.912Z,42.40
2019-03-27T09:18:32.320Z,42.10
2019-03-27T09:21:00.909Z,41.50
2019-03-27T09:23:29.258Z,41.30
2019-03-27T09:25:57.756Z,41.10
2019-03-27T09:28:26.252Z,40.60
2019-03-27T09:30:54.745Z,40.40
2019-03-27T09:33:23.162Z,39.50
2019-03-27T09:35:51.594Z,39.20
2019-03-27T09:38:20.114Z,39.30
2019-03-27T09:40:48.593Z,39.30
2019-03-27T09:43:17.161Z,39.00
2019-03-27T09:45:45.653Z,38.50
2019-03-27T09:48:14.069Z,38.30
2019-03-27T09:50:42.491Z,36.80
2019-03-27T09:53:10.992Z,36.70
2019-03-27T09:55:39.420Z,36.70
2019-03-27T09:58:07.962Z,36.40
2019-03-27T10:00:49.064Z,36.50
2019-03-27T10:03:17.759Z,35.70
2019-03-27T10:05:46.235Z,35.10
2019-03-27T10:08:14.576Z,34.90
2019-03-27T10:10:42.964Z,35.10
2019-03-27T10:13:11.393Z,34.10
2019-03-27T10:15:39.844Z,33.60
2019-03-27T10:18:08.300Z,34.00
2019-03-27T10:20:36.661Z,34.80
2019-03-27T10:23:05.252Z,34.30
2019-03-27T10:25:33.707Z,34.40
2019-03-27T10:28:02.172Z,34.80
2019-03-27T10:30:30.733Z,35.00
2019-03-27T10:32:59.138Z,34.40
2019-03-27T10:35:27.557Z,34.80
2019-03-27T10:37:55.980Z,33.90
2019-03-27T10:40:24.454Z,34.00
2019-03-27T10:42:52.915Z,34.00
2019-03-27T10:45:21.404Z,33.50
2019-03-27T10:47:49.886Z,31.70
2019-03-27T10:50:18.365Z,31.30
2019-03-27T10:52:46.679Z,31.90
2019-03-27T10:55:15.068Z,31.70
2019-03-27T10:57:43.435Z,31.90
2019-03-27T11:00:11.871Z,32.10
2019-03-27T11:02:40.338Z,32.20
2019-03-27T11:05:08.794Z,31.50
2019-03-27T11:07:37.231Z,31.50
2019-03-27T11:10:07.606Z,31.50
2019-03-27T11:12:36.085Z,31.50
2019-03-27T11:15:08.869Z,31.90
2019-03-27T11:17:37.331Z,31.90
2019-03-27T11:20:06.602Z,31.60
2019-03-27T11:22:35.025Z,31.60
2019-03-27T11:25:04.076Z,31.30
2019-03-27T11:27:32.607Z,30.60
2019-03-27T11:30:01.008Z,30.80
2019-03-27T11:32:29.317Z,31.30
2019-03-27T11:34:57.749Z,31.80
2019-03-27T11:37:26.055Z,31.10
2019-03-27T11:39:54.445Z,31.30
2019-03-27T11:42:22.967Z,31.40
2019-03-27T11:44:51.468Z,31.20
2019-03-27T11:47:19.951Z,30.90
2019-03-27T11:49:48.415Z,30.60
2019-03-27T11:52:16.893Z,30.40
2019-03-27T11:54:45.312Z,30.40
2019-03-27T11:57:13.774Z,30.40
2019-03-27T11:59:53.400Z,30.20
2019-03-27T12:02:12.257Z,30.00
2019-03-27T12:04:40.726Z,29.60
2019-03-27T12:07:09.176Z,30.00
2019-03-27T12:09:37.698Z,29.60
2019-03-27T12:12:06.120Z,29.90
2019-03-27T12:14:34.543Z,29.50
2019-03-27T12:17:02.982Z,29.60
2019-03-27T12:19:31.497Z,29.30
2019-03-27T12:21:59.984Z,29.20
2019-03-27T12:24:28.922Z,29.00
2019-03-27T12:26:57.429Z,28.80
2019-03-27T12:29:25.939Z,28.90
2019-03-27T12:31:54.437Z,28.90
2019-03-27T12:34:22.802Z,28.90
2019-03-27T12:36:51.229Z,29.00
2019-03-27T12:39:19.689Z,28.70
2019-03-27T12:41:48.169Z,28.10
2019-03-27T12:44:16.628Z,27.60
2019-03-27T12:46:45.136Z,27.50
2019-03-27T12:49:13.604Z,27.20
2019-03-27T12:51:42.077Z,27.00
2019-03-27T12:54:11.038Z,26.20
2019-03-27T12:56:39.414Z,25.90
2019-03-27T12:59:07.873Z,25.50
2019-03-27T13:01:37.453Z,24.60
2019-03-27T13:04:05.822Z,24.40
2019-03-27T13:06:34.171Z,23.80
2019-03-27T13:09:02.933Z,23.40
2019-03-27T13:11:31.309Z,23.20
2019-03-27T13:13:59.781Z,22.60
2019-03-27T13:16:28.350Z,22.40
2019-03-27T13:18:56.770Z,22.40
2019-03-27T13:21:26.760Z,21.80
2019-03-27T13:23:55.561Z,21.50
2019-03-27T13:26:24.143Z,21.30
2019-03-27T13:28:52.524Z,21.00
2019-03-27T13:31:20.968Z,20.90
2019-03-27T13:33:50.459Z,20.60
2019-03-27T13:36:19.168Z,20.30
2019-03-27T13:38:47.664Z,20.40
2019-03-27T13:41:16.126Z,20.40
2019-03-27T13:43:44.548Z,20.00
2019-03-27T13:46:12.923Z,19.90
2019-03-27T13:48:42.305Z,19.80
2019-03-27T13:51:10.693Z,19.50
2019-03-27T13:53:39.065Z,19.50
2019-03-27T13:56:07.554Z,19.20
2019-03-27T13:58:36.000Z,19.00
2019-03-27T14:01:04.413Z,19.10
2019-03-27T14:03:32.937Z,19.00
2019-03-27T14:06:01.389Z,19.20
2019-03-27T14:08:29.848Z,18.90
2019-03-27T14:10:59.204Z,18.50
2019-03-27T14:13:27.673Z,18.40
2019-03-27T14:15:56.239Z,18.40
2019-03-27T14:18:24.809Z,18.30
2019-03-27T14:20:53.234Z,18.30
2019-03-27T14:23:21.691Z,18.40
2019-03-27T14:25:50.244Z,18.30
2019-03-27T14:28:18.706Z,18.30
2019-03-27T14:30:50.470Z,18.50
2019-03-27T14:33:19.691Z,19.00
2019-03-27T14:35:48.165Z,19.30
2019-03-27T14:38:16.698Z,19.20
2019-03-27T14:40:45.209Z,19.00
2019-03-27T14:43:13.625Z,19.00
2019-03-27T14:45:42.141Z,18.80
2019-03-27T14:48:10.515Z,19.10
2019-03-27T14:50:38.916Z,19.30
2019-03-27T14:53:07.424Z,19.40
2019-03-27T14:55:35.826Z,19.20
2019-03-27T14:58:04.293Z,19.20
2019-03-27T15:00:32.835Z,19.30
2019-03-27T15:03:01.309Z,19.70
2019-03-27T15:05:29.654Z,19.70
2019-03-27T15:07:58.162Z,19.40
2019-03-27T15:10:26.624Z,19.10
2019-03-27T15:12:55.006Z,18.70
2019-03-27T15:15:23.297Z,19.00
2019-03-27T15:17:51.780Z,18.50
2019-03-27T15:20:20.182Z,18.80
2019-03-27T15:22:48.552Z,18.80
2019-03-27T15:25:17.017Z,18.70
2019-03-27T15:27:45.515Z,18.60
2019-03-27T15:30:13.877Z,18.40
2019-03-27T15:32:42.385Z,18.30
2019-03-27T15:35:10.878Z,18.30
2019-03-27T15:37:39.303Z,18.50
2019-03-27T15:40:07.785Z,19.20
2019-03-27T15:42:37.357Z,18.60
2019-03-27T15:45:08.871Z,18.60
2019-03-27T15:47:37.321Z,18.50
2019-03-27T15:50:06.012Z,18.30
2019-03-27T15:52:36.856Z,18.20
2019-03-27T15:55:04.853Z,18.00
2019-03-27T15:57:34.263Z,17.90
2019-03-27T16:00:03.405Z,18.20
2019-03-27T16:02:31.909Z,18.50
2019-03-27T16:05:00.502Z,18.40
2019-03-27T16:07:31.272Z,18.40
2019-03-27T16:09:59.157Z,18.20
2019-03-27T16:12:27.651Z,18.00
2019-03-27T16:14:56.084Z,17.90
2019-03-27T16:17:24.571Z,17.90
2019-03-27T16:19:53.042Z,17.90
2019-03-27T16:22:21.347Z,18.00
2019-03-27T16:24:49.832Z,18.20
2019-03-27T16:27:18.316Z,18.40
2019-03-27T16:29:46.669Z,18.50
2019-03-27T16:32:15.450Z,18.60
2019-03-27T16:34:43.804Z,18.60
2019-03-27T16:37:12.265Z,18.40
2019-03-27T16:39:40.696Z,18.40
2019-03-27T16:42:28.545Z,18.40
2019-03-27T16:44:56.970Z,18.30
2019-03-27T16:47:25.714Z,18.40
2019-03-27T16:49:54.131Z,18.50
2019-03-27T16:52:22.628Z,18.70
2019-03-27T16:54:51.115Z,19.00
2019-03-27T16:57:19.441Z,19.30
2019-03-27T16:59:47.942Z,19.90
2019-03-27T17:02:16.230Z,19.60
2019-03-27T17:04:44.634Z,19.90
2019-03-27T17:07:13.150Z,20.10
2019-03-27T17:09:41.599Z,20.40
2019-03-27T17:12:10.054Z,20.70
2019-03-27T17:14:38.652Z,20.80
2019-03-27T17:17:07.086Z,20.90
2019-03-27T17:19:35.469Z,21.00
2019-03-27T17:22:03.961Z,21.20
2019-03-27T17:24:33.393Z,22.00
2019-03-27T17:27:01.927Z,22.00
2019-03-27T17:29:30.587Z,22.30
2019-03-27T17:31:59.105Z,22.60
2019-03-27T17:34:27.518Z,23.00
2019-03-27T17:36:55.885Z,23.40
2019-03-27T17:39:24.330Z,23.70
2019-03-27T17:41:52.743Z,24.00
2019-03-27T17:44:21.236Z,24.30
2019-03-27T17:46:50.304Z,24.50
2019-03-27T17:49:18.814Z,24.80
2019-03-27T17:51:47.400Z,24.80
2019-03-27T17:54:20.726Z,25.00
2019-03-27T17:56:45.990Z,25.20
2019-03-27T17:59:14.413Z,25.30
2019-03-27T18:01:42.846Z,25.40
2019-03-27T18:04:11.270Z,25.60
2019-03-27T18:06:39.808Z,25.70
2019-03-27T18:09:29.374Z,25.80
2019-03-27T18:11:57.856Z,25.90
2019-03-27T18:14:26.361Z,26.10
2019-03-27T18:16:54.726Z,26.20
2019-03-27T18:19:23.199Z,26.30
2019-03-27T18:21:51.582Z,26.40
2019-03-27T18:24:20.000Z,26.50
2019-03-27T18:26:48.455Z,26.70
2019-03-27T18:29:16.836Z,26.80
2019-03-27T18:31:45.391Z,27.00
2019-03-27T18:34:13.876Z,27.10
2019-03-27T18:36:42.270Z,27.10
2019-03-27T18:39:10.773Z,27.30
2019-03-27T18:41:39.139Z,27.90
2019-03-27T18:44:07.542Z,27.50
2019-03-27T18:46:36.041Z,27.70
2019-03-27T18:49:04.500Z,27.80
2019-03-27T18:51:33.057Z,27.90
2019-03-27T18:54:01.575Z,28.00
2019-03-27T18:56:30.099Z,28.70
2019-03-27T18:58:58.600Z,28.30
2019-03-27T19:01:27.077Z,28.40
2019-03-27T19:03:55.596Z,28.60
2019-03-27T19:06:24.060Z,28.70
2019-03-27T19:08:52.535Z,28.80
2019-03-27T19:11:21.072Z,29.00
2019-03-27T19:13:49.611Z,29.00
2019-03-27T19:16:24.756Z,29.10
2019-03-27T19:18:54.210Z,29.10
2019-03-27T19:21:22.691Z,29.20
2019-03-27T19:23:51.181Z,29.20
2019-03-27T19:26:19.673Z,29.20
2019-03-27T19:28:48.069Z,29.30
2019-03-27T19:31:16.682Z,29.30
2019-03-27T19:33:45.114Z,29.30
2019-03-27T19:36:13.560Z,29.40
2019-03-27T19:38:42.166Z,29.50
2019-03-27T19:41:11.040Z,29.60
2019-03-27T19:43:39.638Z,29.60
2019-03-27T19:46:08.258Z,29.70
2019-03-27T19:48:36.710Z,29.80
2019-03-27T19:51:05.123Z,29.80
2019-03-27T19:53:33.527Z,29.90
2019-03-27T19:56:01.922Z,30.10
2019-03-27T19:58:30.576Z,30.00
2019-03-27T20:00:59.284Z,30.00
2019-03-27T20:03:27.838Z,30.00
2019-03-27T20:05:57.448Z,30.10
2019-03-27T20:08:25.852Z,30.30
2019-03-27T20:10:54.254Z,30.40
2019-03-27T20:13:22.785Z,30.60
2019-03-27T20:15:51.425Z,30.90
2019-03-27T20:18:19.981Z,31.00
2019-03-27T20:20:48.538Z,31.10
2019-03-27T20:23:16.995Z,31.20
2019-03-27T20:25:45.383Z,31.30
2019-03-27T20:28:13.911Z,31.40
2019-03-27T20:30:42.305Z,31.60
2019-03-27T20:33:10.753Z,31.70
2019-03-27T20:35:40.413Z,31.80
2019-03-27T20:38:09.010Z,31.70
2019-03-27T20:40:37.669Z,31.60
2019-03-27T20:43:06.077Z,31.60
2019-03-27T20:45:34.512Z,31.70
2019-03-27T20:48:02.936Z,31.70
2019-03-27T20:50:31.438Z,31.80
2019-03-27T20:52:59.875Z,31.80
2019-03-27T20:55:30.535Z,31.80
2019-03-27T20:57:59.605Z,31.90
2019-03-27T21:00:28.250Z,32.00
2019-03-27T21:02:56.751Z,32.00
2019-03-27T21:05:25.286Z,32.10
2019-03-27T21:07:53.682Z,32.10
2019-03-27T21:10:22.201Z,32.10
2019-03-27T21:12:50.719Z,32.20
2019-03-27T21:15:19.358Z,32.10
2019-03-27T21:17:47.704Z,32.20
2019-03-27T21:20:16.040Z,32.20
2019-03-27T21:22:44.502Z,32.30
2019-03-27T21:25:13.009Z,32.30
2019-03-27T21:27:41.503Z,32.40
2019-03-27T21:30:10.808Z,32.60
2019-03-27T21:32:39.433Z,32.60
2019-03-27T21:35:07.889Z,32.70
2019-03-27T21:37:36.321Z,32.80
2019-03-27T21:40:06.500Z,32.90
2019-03-27T21:42:35.124Z,33.00
2019-03-27T21:45:05.681Z,33.00
2019-03-27T21:47:34.186Z,33.10
2019-03-27T21:50:03.591Z,33.10
2019-03-27T21:52:32.011Z,33.20
2019-03-27T21:55:00.616Z,33.10
2019-03-27T21:57:28.976Z,33.20
2019-03-27T21:59:57.545Z,33.20
2019-03-27T22:02:26.133Z,33.30
2019-03-27T22:04:54.609Z,33.40
2019-03-27T22:07:23.043Z,33.50
2019-03-27T22:09:51.681Z,33.60
2019-03-27T22:12:20.109Z,33.70
2019-03-27T22:14:48.630Z,33.70
2019-03-27T22:17:17.237Z,33.70
2019-03-27T22:19:45.756Z,33.80
2019-03-27T22:22:14.219Z,33.80
2019-03-27T22:24:42.696Z,33.90
2019-03-27T22:27:11.037Z,33.90
2019-03-27T22:29:39.495Z,34.00
2019-03-27T22:32:08.082Z,34.10
2019-03-27T22:34:36.538Z,34.20
2019-03-27T22:37:05.287Z,34.20
2019-03-27T22:39:33.816Z,34.30
2019-03-27T22:42:02.265Z,34.40
2019-03-27T22:44:30.696Z,34.40
2019-03-27T22:46:59.256Z,34.60
2019-03-27T22:49:27.615Z,34.50
2019-03-27T22:51:56.091Z,34.50
2019-03-27T22:54:24.554Z,34.70
2019-03-27T22:56:53.093Z,34.70
2019-03-27T22:59:21.493Z,34.70
2019-03-27T23:01:50.071Z,35.40
2019-03-27T23:04:18.463Z,35.00
2019-03-27T23:06:46.933Z,35.10
2019-03-27T23:09:15.421Z,35.10
2019-03-27T23:11:43.855Z,35.40
2019-03-27T23:14:12.232Z,35.50
2019-03-27T23:16:40.698Z,35.60
2019-03-27T23:19:09.127Z,35.70
2019-03-27T23:21:37.562Z,35.90
2019-03-27T23:24:06.743Z,36.00
2019-03-27T23:26:35.191Z,36.00
2019-03-27T23:29:03.648Z,36.00
2019-03-27T23:31:32.152Z,36.10
2019-03-27T23:34:00.613Z,36.10
2019-03-27T23:36:29.108Z,36.30
2019-03-27T23:38:57.654Z,36.30
2019-03-27T23:41:26.089Z,36.40
2019-03-27T23:43:54.486Z,36.50
2019-03-27T23:46:23.009Z,36.50
2019-03-27T23:48:51.403Z,36.60
2019-03-27T23:51:19.831Z,36.60
2019-03-27T23:53:48.338Z,36.60
2019-03-27T23:56:17.229Z,36.70
2019-03-27T23:58:45.842Z,36.70
